createdAt,value
2022-09-26T00:03:19.036Z,0.00
2022-09-26T00:08:18.984Z,0.00
2022-09-26T00:13:18.993Z,0.00
2022-09-26T00:18:18.835Z,0.00
2022-09-26T00:23:18.810Z,0.00
2022-09-26T00:28:18.726Z,0.00
2022-09-26T00:33:18.667Z,0.00
2022-09-26T00:38:18.606Z,0.00
2022-09-26T00:43:18.537Z,0.00
2022-09-26T00:48:18.469Z,0.00
2022-09-26T00:53:18.409Z,0.00
2022-09-26T00:58:18.347Z,0.00
2022-09-26T01:03:18.279Z,0.00
2022-09-26T01:08:18.222Z,0.00
2022-09-26T01:13:18.160Z,0.00
2022-09-26T01:18:18.121Z,0.00
2022-09-26T01:23:18.044Z,0.00
2022-09-26T01:28:17.970Z,0.00
2022-09-26T01:33:17.901Z,0.00
2022-09-26T01:38:17.900Z,0.00
2022-09-26T01:43:17.773Z,0.00
2022-09-26T01:48:17.723Z,0.00
2022-09-26T01:53:17.644Z,0.00
2022-09-26T01:58:17.608Z,0.00
2022-09-26T02:03:17.525Z,0.00
2022-09-26T02:08:17.466Z,0.00
2022-09-26T02:13:17.396Z,0.00
2022-09-26T02:18:17.336Z,0.00
2022-09-26T02:23:17.316Z,0.00
2022-09-26T02:28:17.217Z,0.00
2022-09-26T02:33:17.146Z,0.00
2022-09-26T02:38:17.100Z,0.00
2022-09-26T02:43:17.010Z,0.00
2022-09-26T02:48:16.988Z,0.00
2022-09-26T02:53:16.898Z,0.00
2022-09-26T02:58:16.839Z,0.00
2022-09-26T03:03:16.770Z,0.00
2022-09-26T03:08:16.720Z,0.00
2022-09-26T03:13:16.647Z,0.00
2022-09-26T03:18:16.565Z,0.00
2022-09-26T03:23:16.521Z,0.00
2022-09-26T03:28:16.473Z,0.00
2022-09-26T03:33:16.383Z,0.00
2022-09-26T03:38:16.364Z,0.00
2022-09-26T03:43:16.296Z,0.00
2022-09-26T03:48:16.211Z,0.00
2022-09-26T03:53:16.143Z,0.00
2022-09-26T03:58:16.077Z,0.00
2022-09-26T04:03:16.006Z,0.00
2022-09-26T04:08:15.966Z,0.00
2022-09-26T04:13:39.755Z,0.00
2022-09-26T04:18:16.834Z,0.00
2022-09-26T04:23:15.749Z,0.00
2022-09-26T04:28:15.704Z,0.00
2022-09-26T04:33:15.677Z,0.00
2022-09-26T04:38:15.579Z,0.00
2022-09-26T04:43:15.519Z,0.00
2022-09-26T04:48:15.479Z,0.00
2022-09-26T04:53:15.385Z,5.62
2022-09-26T04:58:15.329Z,11.25
2022-09-26T05:03:15.261Z,16.88
2022-09-26T05:08:15.211Z,33.75
2022-09-26T05:13:15.131Z,39.38
2022-09-26T05:18:15.079Z,56.25
2022-09-26T05:23:15.011Z,56.25
2022-09-26T05:28:15.015Z,95.62
2022-09-26T05:33:14.886Z,129.38
2022-09-26T05:38:14.825Z,123.75
2022-09-26T05:43:14.766Z,123.75
2022-09-26T05:48:14.703Z,135.00
2022-09-26T05:53:14.635Z,219.38
2022-09-26T05:58:14.596Z,253.12
2022-09-26T06:03:14.506Z,281.25
2022-09-26T06:08:14.457Z,286.88
2022-09-26T06:13:14.386Z,309.38
2022-09-26T06:18:14.338Z,298.12
2022-09-26T06:23:14.289Z,253.12
2022-09-26T06:28:14.199Z,360.00
2022-09-26T06:33:14.146Z,472.50
2022-09-26T06:38:14.099Z,607.50
2022-09-26T06:43:14.024Z,421.88
2022-09-26T06:48:13.983Z,264.38
2022-09-26T06:53:13.910Z,309.38
2022-09-26T06:58:13.850Z,461.25
2022-09-26T07:03:13.773Z,489.38
2022-09-26T07:08:13.708Z,523.12
2022-09-26T07:13:13.650Z,405.00
2022-09-26T07:18:13.605Z,466.88
2022-09-26T07:23:13.846Z,883.12
2022-09-26T07:28:13.451Z,832.50
2022-09-26T07:33:13.392Z,742.50
2022-09-26T07:38:13.328Z,658.12
2022-09-26T07:43:20.057Z,450.00
2022-09-26T07:48:14.202Z,534.38
2022-09-26T07:53:13.205Z,753.75
2022-09-26T07:58:13.112Z,804.38
2022-09-26T08:03:13.106Z,860.62
2022-09-26T08:08:12.974Z,1108.12
2022-09-26T08:13:12.920Z,1063.12
2022-09-26T08:18:12.826Z,888.75
2022-09-26T08:23:12.778Z,821.25
2022-09-26T08:28:12.723Z,680.62
2022-09-26T08:33:12.651Z,691.88
2022-09-26T08:38:12.580Z,680.62
2022-09-26T08:43:12.529Z,900.00
2022-09-26T08:48:12.459Z,579.38
2022-09-26T08:53:12.403Z,905.62
2022-09-26T08:58:12.372Z,1175.62
2022-09-26T09:03:12.299Z,1333.12
2022-09-26T09:08:12.201Z,725.62
2022-09-26T09:13:12.167Z,894.38
2022-09-26T09:18:13.757Z,1338.75
2022-09-26T09:23:12.017Z,1355.62
2022-09-26T09:28:11.967Z,1462.50
2022-09-26T09:33:11.903Z,1625.62
2022-09-26T09:38:11.835Z,1552.50
2022-09-26T09:43:11.805Z,922.50
2022-09-26T09:48:11.707Z,663.75
2022-09-26T09:53:11.647Z,607.50
2022-09-26T09:58:11.591Z,1006.88
2022-09-26T10:03:11.608Z,663.75
2022-09-26T10:08:11.469Z,995.62
2022-09-26T10:13:11.411Z,1029.38
2022-09-26T10:18:27.451Z,1080.00
2022-09-26T10:23:12.290Z,900.00
2022-09-26T10:28:11.217Z,663.75
2022-09-26T10:33:11.148Z,630.00
2022-09-26T10:38:11.094Z,855.00
2022-09-26T10:43:11.023Z,883.12
2022-09-26T10:48:10.963Z,753.75
2022-09-26T10:53:10.894Z,1001.25
2022-09-26T10:58:13.843Z,1141.88
2022-09-26T11:03:10.823Z,1158.75
2022-09-26T11:08:10.725Z,1260.00
2022-09-26T11:13:10.666Z,1254.38
2022-09-26T11:18:10.587Z,1411.88
2022-09-26T11:23:10.530Z,1096.88
2022-09-26T11:28:10.458Z,973.12
2022-09-26T11:33:10.400Z,1800.00
2022-09-26T11:38:10.327Z,1462.50
2022-09-26T11:43:10.271Z,2666.25
2022-09-26T11:48:10.208Z,1524.38
2022-09-26T11:53:10.154Z,3003.75
2022-09-26T11:58:10.087Z,3060.00
2022-09-26T12:03:10.187Z,2885.62
2022-09-26T12:08:10.291Z,1158.75
2022-09-26T12:13:09.925Z,1310.62
2022-09-26T12:18:09.847Z,2795.62
2022-09-26T12:23:09.857Z,2610.00
2022-09-26T12:28:09.706Z,2643.75
2022-09-26T12:33:09.656Z,2722.50
2022-09-26T12:38:09.580Z,2655.00
2022-09-26T12:43:09.550Z,2458.12
2022-09-26T12:48:09.460Z,866.25
2022-09-26T12:53:09.399Z,2694.38
2022-09-26T12:58:09.350Z,967.50
2022-09-26T13:03:09.354Z,804.38
2022-09-26T13:08:09.214Z,787.50
2022-09-26T13:13:09.153Z,1901.25
2022-09-26T13:18:09.099Z,3088.12
2022-09-26T13:23:09.034Z,2812.50
2022-09-26T13:28:08.965Z,1035.00
2022-09-26T13:33:08.909Z,2463.75
2022-09-26T13:38:08.838Z,2058.75
2022-09-26T13:43:08.787Z,1890.00
2022-09-26T13:48:08.718Z,1541.25
2022-09-26T13:53:08.667Z,1265.62
2022-09-26T13:58:08.589Z,1057.50
2022-09-26T14:03:08.592Z,1091.25
2022-09-26T14:08:08.461Z,1051.88
2022-09-26T14:13:08.479Z,838.12
2022-09-26T14:18:08.371Z,770.62
2022-09-26T14:23:08.315Z,798.75
2022-09-26T14:28:08.204Z,1175.62
2022-09-26T14:33:08.157Z,1035.00
2022-09-26T14:38:08.075Z,911.25
2022-09-26T14:43:08.027Z,613.12
2022-09-26T14:48:07.963Z,478.12
2022-09-26T14:53:07.903Z,416.25
2022-09-26T14:58:07.850Z,388.12
2022-09-26T15:03:07.864Z,517.50
2022-09-26T15:08:08.039Z,742.50
2022-09-26T15:13:07.651Z,579.38
2022-09-26T15:18:07.601Z,421.88
2022-09-26T15:23:07.533Z,444.38
2022-09-26T15:28:07.536Z,562.50
2022-09-26T15:33:07.415Z,331.88
2022-09-26T15:38:07.345Z,405.00
2022-09-26T15:43:07.276Z,292.50
2022-09-26T15:48:07.215Z,343.12
2022-09-26T15:53:07.205Z,348.75
2022-09-26T15:58:07.181Z,320.62
2022-09-26T16:03:07.061Z,298.12
2022-09-26T16:08:06.986Z,258.75
2022-09-26T16:13:06.951Z,225.00
2022-09-26T16:18:06.853Z,196.88
2022-09-26T16:23:06.791Z,168.75
2022-09-26T16:28:06.744Z,135.00
2022-09-26T16:33:06.703Z,112.50
2022-09-26T16:38:06.600Z,90.00
2022-09-26T16:43:06.574Z,73.12
2022-09-26T16:48:06.485Z,50.62
2022-09-26T16:53:06.478Z,33.75
2022-09-26T16:58:06.356Z,22.50
2022-09-26T17:03:06.344Z,11.25
2022-09-26T17:08:06.235Z,5.62
2022-09-26T17:13:06.164Z,0.00
2022-09-26T17:18:06.090Z,0.00
2022-09-26T17:23:27.675Z,0.00
2022-09-26T17:28:06.958Z,0.00
2022-09-26T17:33:05.909Z,0.00
2022-09-26T17:38:05.900Z,0.00
2022-09-26T17:43:05.792Z,0.00
2022-09-26T17:48:05.735Z,0.00
2022-09-26T17:53:05.702Z,0.00
2022-09-26T17:58:05.622Z,0.00
2022-09-26T18:03:05.640Z,0.00
2022-09-26T18:08:05.493Z,0.00
2022-09-26T18:13:09.409Z,0.00
2022-09-26T18:18:06.372Z,0.00
2022-09-26T18:23:05.273Z,0.00
2022-09-26T18:28:05.254Z,0.00
2022-09-26T18:33:05.164Z,0.00
2022-09-26T18:38:05.079Z,0.00
2022-09-26T18:43:05.076Z,0.00
2022-09-26T18:48:04.969Z,0.00
2022-09-26T18:53:04.938Z,0.00
2022-09-26T19:00:46.337Z,0.00
2022-09-26T19:05:46.251Z,0.00
2022-09-26T19:10:46.189Z,0.00
2022-09-26T19:15:46.207Z,0.00
2022-09-26T19:20:46.075Z,0.00
2022-09-26T19:25:45.998Z,0.00
2022-09-26T19:30:46.055Z,0.00
2022-09-26T19:35:45.878Z,0.00
2022-09-26T19:40:48.806Z,0.00
2022-09-26T19:45:45.770Z,0.00
2022-09-26T19:50:45.733Z,0.00
2022-09-26T19:55:45.669Z,0.00
2022-09-26T20:00:45.660Z,0.00
2022-09-26T20:05:45.503Z,0.00
2022-09-26T20:10:45.489Z,0.00
2022-09-26T20:15:45.371Z,0.00
2022-09-26T20:20:45.338Z,0.00
2022-09-26T20:25:45.255Z,0.00
2022-09-26T20:30:45.219Z,0.00
2022-09-26T20:35:45.127Z,0.00
2022-09-26T20:40:45.125Z,0.00
2022-09-26T20:45:45.064Z,0.00
2022-09-26T20:50:44.933Z,0.00
2022-09-26T20:55:44.888Z,0.00
2022-09-26T21:00:44.817Z,0.00
2022-09-26T21:05:44.777Z,0.00
2022-09-26T21:10:44.691Z,0.00
2022-09-26T21:15:44.638Z,0.00
2022-09-26T21:20:44.576Z,0.00
2022-09-26T21:25:44.498Z,0.00
2022-09-26T21:30:44.514Z,0.00
2022-09-26T21:35:44.369Z,0.00
2022-09-26T21:40:44.405Z,0.00
2022-09-26T21:45:44.340Z,0.00
2022-09-26T21:50:44.180Z,0.00
2022-09-26T21:55:44.118Z,0.00
2022-09-26T22:00:44.064Z,0.00
2022-09-26T22:05:44.000Z,0.00
2022-09-26T22:10:43.934Z,0.00
2022-09-26T22:15:43.873Z,0.00
2022-09-26T22:20:43.803Z,0.00
2022-09-26T22:25:43.744Z,0.00
2022-09-26T22:30:43.727Z,0.00
2022-09-26T22:35:43.634Z,0.00
2022-09-26T22:40:43.576Z,0.00
2022-09-26T22:45:43.574Z,0.00
2022-09-26T22:50:43.434Z,0.00
2022-09-26T22:55:43.391Z,0.00
2022-09-26T23:00:43.309Z,0.00
2022-09-26T23:05:43.569Z,0.00
2022-09-26T23:10:43.217Z,0.00
2022-09-26T23:15:43.129Z,0.00
2022-09-26T23:20:43.050Z,0.00
2022-09-26T23:25:42.998Z,0.00
2022-09-26T23:30:43.008Z,0.00
2022-09-26T23:35:42.869Z,0.00
2022-09-26T23:40:42.859Z,0.00
2022-09-26T23:45:42.761Z,0.00
2022-09-26T23:50:42.684Z,0.00
2022-09-26T23:55:42.599Z,0.00
